Кобрин

Карта отелей и гостиниц, располагающихся рядом с аэропортом Кобрин :

Кобрин Брестская область 52° 14' 17.2212" N, 24° 20' 46.6152" E
Код аэродрома ИКАО
UMNN
Код аэродрома RU
УМНН
Координаты
N52.23812° E024.34628°
Превышение над уровнем моря
148
Основная полоса
13/31
Курс магнитный
127,1/307,1
Длина основной ВПП
2500
Ширина основной ВПП
45
Покрытие основной ВПП
Твёрдое (бетон)
Освещение ВПП
Нет
Тип: 
Аэродром
Класс аэродрома: 
Принадлежность: 
МО
Статус: 
Недействующий
Сайт: 
E-mail аэродрома: 
Страна: 
Беларусь
Регион: 
Брестская область
Город: 
Дополнительная информация: 
Бывший военный аэродром МО СССР. Был заброшен. В н.в. разграблен, застроен и больше не существует.

Найти трансфер

С помощью этой формы Вы можете найти трансфер из аэропорта Кобрин в город, аэропорт или вокзал:

Погода в аэропортах:

Авиационная погода в Чимкенте

Регион: 
Погода METAR: 
UAII 221800Z 36003MPS 1700 R28/P2000 BR OVC002 M01/M01 Q1025 NOSIG RMK QBB080 QFE731/0974
Время наблюдения
2022-01-22T18:00:00Z
Температура C
-1.0
Точка росы
-1.0
Направление ветра
360
Скорость ветра (узлы)
6
Метео видимость
1.06
Облачность
OVC
Нижняя граница облачности (футы)
200
Явления погоды
BR
Условия полета
LIFR
Аэропорт подробнее: 
OVC – сплошная облачность;
BR – дымка (видимость от 1 до 9 км);

Авиационная погода в Брянске

Регион: 
Погода METAR: 
UUBP 221800Z AUTO 24002MPS 9999 -SN M09/M10 Q1009 RMK QFE739/0986
Время наблюдения
2022-01-22T18:00:00Z
Температура C
-9.0
Точка росы
-10.0
Направление ветра
240
Скорость ветра (узлы)
4
Метео видимость
6.21
Облачность
Нижняя граница облачности (футы)
Явления погоды
-SN
Условия полета
Аэропорт подробнее: 
-SN – слабый снег;

Авиационная погода в Синопе

Регион: 
Погода METAR: 
LTCM 220850Z 25007KT 6000 -RA SCT014 BKN032 BKN080 02/01 Q1016
Время наблюдения
2022-01-22T08:50:00Z
Температура C
2.0
Точка росы
1.0
Направление ветра
250
Скорость ветра (узлы)
7
Метео видимость
3.73
Облачность
SCT
BKN
BKN
Нижняя граница облачности (футы)
1400
3200
8000
Явления погоды
-RA
Условия полета
MVFR
SCT – разбросанная отдельная облачность; BKN – значительная (рассеянная, разорванная) облачность;
-RA - слабый дождь;

Авиационная погода в Казани

Регион: 
Погода METAR: 
UWKD 221800Z 15007MPS 1900 R11/P2000N SN BLSN OVC021 M06/M08 Q1020 R11/451040 NOSIG RMK QFE755/1007
Время наблюдения
2022-01-22T18:00:00Z
Температура C
-6.0
Точка росы
-8.0
Направление ветра
150
Скорость ветра (узлы)
14
Метео видимость
1.18
Облачность
OVC
Нижняя граница облачности (футы)
2100
Явления погоды
SN BLSN
Условия полета
IFR
Аэропорт подробнее: 
OVC – сплошная облачность;
SN – снег, BLSN – метель низовая или общая;